Time;durP1;ratioP1;P1;durP2;ratioP2;P2;SDS_P1;SDS_P2;PMS_P1;PMS_P2;Temp;Humidity;BMP_temperature;BMP_pressure;BME280_temperature;BME280_humidity;BME280_pressure;Samples;Min_cycle;Max_cycle;Signal;HPM_P1;HPM_P2
2022/12/25 00:00:19;;;;;;;21.20;5.80;;;9.70;99.90;;;;;;4998136;28;20478;-75
2022/12/25 00:03:05;;;;;;;9.27;4.87;;;9.80;99.90;;;;;;5007482;28;20444;-75
2022/12/25 00:05:50;;;;;;;7.67;3.73;;;9.70;99.90;;;;;;5011764;28;20481;-75
2022/12/25 00:08:37;;;;;;;15.27;3.90;;;9.80;99.90;;;;;;5005516;28;20445;-74
2022/12/25 00:11:22;;;;;;;11.30;3.87;;;9.80;99.90;;;;;;4999514;28;20457;-75
2022/12/25 00:14:08;;;;;;;9.50;4.37;;;9.90;99.90;;;;;;5007000;28;20453;-74
2022/12/25 00:16:55;;;;;;;10.47;3.80;;;9.90;99.90;;;;;;5008806;28;20637;-72
2022/12/25 00:19:41;;;;;;;11.77;4.10;;;9.90;99.90;;;;;;5006642;28;21038;-74
2022/12/25 00:22:26;;;;;;;16.63;3.70;;;9.90;99.90;;;;;;5004866;28;20457;-74
2022/12/25 00:25:12;;;;;;;9.43;4.80;;;9.90;99.90;;;;;;5008973;28;20445;-75
2022/12/25 00:27:58;;;;;;;9.67;3.27;;;9.90;99.90;;;;;;5008820;28;20959;-74
2022/12/25 00:30:43;;;;;;;11.50;3.80;;;9.90;99.90;;;;;;5004517;28;20895;-75
2022/12/25 00:33:30;;;;;;;9.40;3.50;;;10.00;99.90;;;;;;4996997;28;20445;-73
2022/12/25 00:36:18;;;;;;;8.30;3.67;;;10.00;99.90;;;;;;5003624;28;20827;-75
2022/12/25 00:39:05;;;;;;;11.33;3.90;;;10.10;99.90;;;;;;5005039;28;20624;-74
2022/12/25 00:44:55;;;;;;;9.33;4.33;;;10.10;99.90;;;;;;5007200;28;20453;-75
2022/12/25 00:47:40;;;;;;;8.23;3.77;;;10.10;99.90;;;;;;5004538;28;20441;-75
2022/12/25 00:50:27;;;;;;;18.80;4.90;;;10.10;99.90;;;;;;5003147;28;20449;-75
2022/12/25 00:53:13;;;;;;;7.43;3.73;;;10.20;99.90;;;;;;5014306;28;20453;-75
2022/12/25 00:56:00;;;;;;;14.80;3.83;;;10.20;99.90;;;;;;5018452;28;21122;-75
2022/12/25 00:58:46;;;;;;;8.53;3.40;;;10.20;99.90;;;;;;5012812;28;20545;-73
2022/12/25 01:01:32;;;;;;;8.43;2.90;;;10.20;99.90;;;;;;5013740;28;20833;-75
2022/12/25 01:04:18;;;;;;;17.03;3.17;;;10.30;99.90;;;;;;5013912;28;20505;-74
2022/12/25 01:07:05;;;;;;;5.07;2.47;;;10.20;99.90;;;;;;5016969;28;20444;-75
2022/12/25 01:12:54;;;;;;;10.20;2.90;;;10.20;99.90;;;;;;5007833;28;20469;-74
2022/12/25 01:15:40;;;;;;;5.90;2.50;;;10.20;99.90;;;;;;5012595;28;20465;-74
2022/12/25 01:18:26;;;;;;;8.47;2.83;;;10.20;99.90;;;;;;5007474;28;20440;-75
2022/12/25 01:21:15;;;;;;;7.90;2.97;;;10.20;99.90;;;;;;5005620;28;20437;-75
2022/12/25 01:24:02;;;;;;;10.43;2.73;;;10.30;99.90;;;;;;5016917;28;20545;-75
2022/12/25 01:26:48;;;;;;;11.87;2.67;;;10.40;99.90;;;;;;5011153;28;20824;-75
2022/12/25 01:29:33;;;;;;;14.03;2.80;;;10.40;99.90;;;;;;5005098;28;20803;-75
2022/12/25 01:32:19;;;;;;;6.80;2.47;;;10.40;99.90;;;;;;5013035;28;20555;-75
2022/12/25 01:35:06;;;;;;;9.17;2.80;;;10.40;99.90;;;;;;5017808;28;20441;-73
2022/12/25 01:37:51;;;;;;;12.47;2.90;;;10.40;99.90;;;;;;5007738;28;20481;-75
2022/12/25 01:40:39;;;;;;;9.23;2.90;;;10.30;99.90;;;;;;5012337;28;20480;-75
2022/12/25 01:43:27;;;;;;;9.73;2.50;;;10.30;99.90;;;;;;5014418;28;20421;-74
2022/12/25 01:46:13;;;;;;;6.30;2.07;;;10.40;99.90;;;;;;5015255;28;20512;-73
2022/12/25 01:49:04;;;;;;;9.13;2.17;;;10.20;99.90;;;;;;4997816;28;20521;-74
2022/12/25 01:51:54;;;;;;;7.27;2.73;;;10.30;99.90;;;;;;5009888;28;20536;-74
2022/12/25 01:54:44;;;;;;;10.53;2.10;;;10.30;99.90;;;;;;5010057;28;20532;-75
2022/12/25 01:57:35;;;;;;;10.43;2.53;;;10.30;99.90;;;;;;5009827;28;20926;-72
2022/12/25 02:00:21;;;;;;;5.73;2.03;;;10.30;99.90;;;;;;5007218;28;21108;-72
2022/12/25 02:03:07;;;;;;;6.20;3.40;;;10.30;99.90;;;;;;5009260;28;20449;-72
2022/12/25 02:05:53;;;;;;;4.10;2.03;;;10.30;99.90;;;;;;5012600;28;20832;-72
2022/12/25 02:08:39;;;;;;;6.13;2.27;;;10.30;99.90;;;;;;5006228;28;20449;-72
2022/12/25 02:14:33;;;;;;;8.43;2.77;;;10.30;99.90;;;;;;5010172;28;20441;-73
2022/12/25 02:17:28;;;;;;;8.30;2.03;;;10.30;99.90;;;;;;5003893;28;20461;-73
2022/12/25 02:20:46;;;;;;;14.80;2.60;;;10.40;99.90;;;;;;5018782;28;21004;-72
2022/12/25 02:23:49;;;;;;;5.50;1.93;;;10.40;99.90;;;;;;4996000;28;20525;-71
2022/12/25 02:27:02;;;;;;;5.57;2.30;;;10.40;99.90;;;;;;5007882;28;20469;-72
2022/12/25 02:29:56;;;;;;;11.80;2.10;;;10.30;99.90;;;;;;5007609;28;20609;-73
2022/12/25 02:32:47;;;;;;;5.57;1.90;;;10.30;99.90;;;;;;5008773;28;20605;-72
2022/12/25 02:35:31;;;;;;;3.60;2.00;;;10.20;99.90;;;;;;5011585;28;20639;-72
2022/12/25 02:38:22;;;;;;;3.97;1.67;;;10.10;99.90;;;;;;5014060;28;21054;-72
2022/12/25 02:41:14;;;;;;;7.60;2.30;;;10.00;99.90;;;;;;5013275;28;20998;-72
2022/12/25 03:12:08;;;;;;;5.10;1.43;;;9.70;99.90;;;;;;5013876;28;20453;-72
2022/12/25 03:18:03;;;;;;;5.90;2.00;;;9.70;99.90;;;;;;5012133;28;20448;-72
2022/12/25 03:27:03;;;;;;;5.70;2.00;;;9.50;99.90;;;;;;5001408;28;20489;-72
2022/12/25 03:32:59;;;;;;;5.67;2.17;;;9.30;99.90;;;;;;5012240;28;20448;-72
2022/12/25 03:36:01;;;;;;;5.50;2.37;;;9.40;99.90;;;;;;5006869;28;20611;-72
2022/12/25 04:37:28;;;;;;;5.13;2.63;;;9.90;99.90;;;;;;5001609;28;21033;-72
2022/12/25 04:40:14;;;;;;;3.30;2.17;;;9.90;99.90;;;;;;5012875;28;20555;-72
2022/12/25 04:43:00;;;;;;;6.70;2.90;;;9.90;99.90;;;;;;5011719;28;20441;-72
2022/12/25 04:45:53;;;;;;;3.37;2.20;;;9.90;99.90;;;;;;5002662;28;21068;-72
2022/12/25 04:48:38;;;;;;;7.33;3.77;;;9.90;99.90;;;;;;5017387;28;20433;-73
2022/12/25 04:51:25;;;;;;;5.33;2.83;;;9.90;99.90;;;;;;5010503;28;20464;-72
2022/12/25 04:54:12;;;;;;;8.10;2.70;;;9.90;99.90;;;;;;5017052;28;20453;-74
2022/12/25 04:56:58;;;;;;;6.10;2.10;;;9.90;99.90;;;;;;5004744;28;20516;-72
2022/12/25 04:59:43;;;;;;;5.40;2.20;;;10.00;99.90;;;;;;5010253;28;20472;-73
2022/12/25 05:02:29;;;;;;;5.50;3.23;;;9.90;99.90;;;;;;5011108;28;20453;-72
2022/12/25 05:05:15;;;;;;;8.20;4.07;;;9.90;99.90;;;;;;5003866;28;20441;-72
2022/12/25 05:08:01;;;;;;;5.17;2.90;;;9.90;99.90;;;;;;5008161;28;20446;-73
2022/12/25 05:10:48;;;;;;;6.50;3.43;;;10.00;99.90;;;;;;5005691;28;20456;-72
2022/12/25 05:13:34;;;;;;;6.43;3.90;;;10.00;99.90;;;;;;5014385;28;20449;-73
2022/12/25 05:16:20;;;;;;;6.70;3.97;;;10.00;99.90;;;;;;5005076;28;20226;-72
2022/12/25 05:19:06;;;;;;;7.30;3.97;;;10.00;99.90;;;;;;5013374;28;20499;-72
2022/12/25 05:21:52;;;;;;;6.93;3.57;;;10.00;99.90;;;;;;5010516;28;20576;-73
2022/12/25 05:24:38;;;;;;;8.23;3.40;;;10.00;99.90;;;;;;5008413;28;20585;-72
2022/12/25 05:27:25;;;;;;;8.37;3.20;;;10.00;99.90;;;;;;5011657;28;20465;-71
2022/12/25 05:30:10;;;;;;;7.60;4.43;;;10.00;99.90;;;;;;5014255;28;20459;-72
2022/12/25 05:32:56;;;;;;;6.67;3.87;;;10.00;99.90;;;;;;5016822;28;20446;-72
2022/12/25 05:35:42;;;;;;;4.63;2.63;;;9.90;99.90;;;;;;5006624;28;20484;-72
2022/12/25 05:38:27;;;;;;;5.50;3.37;;;9.90;99.90;;;;;;5015597;28;21383;-75
2022/12/25 05:41:13;;;;;;;12.50;3.17;;;9.90;99.90;;;;;;5010224;28;20472;-72
2022/12/25 05:44:00;;;;;;;4.43;3.13;;;10.00;99.90;;;;;;5007367;28;20460;-73
2022/12/25 05:46:45;;;;;;;5.03;2.60;;;10.00;99.90;;;;;;5007616;28;20473;-72
2022/12/25 05:49:31;;;;;;;17.37;3.53;;;10.00;99.90;;;;;;5013340;28;21076;-73
2022/12/25 05:52:16;;;;;;;7.50;2.97;;;10.00;99.90;;;;;;5009172;28;20523;-72
2022/12/25 05:55:02;;;;;;;9.30;3.10;;;10.00;99.90;;;;;;5001398;28;20860;-73
2022/12/25 05:57:48;;;;;;;5.50;3.07;;;10.00;99.90;;;;;;5018336;28;20461;-72
2022/12/25 06:00:36;;;;;;;14.47;2.90;;;10.00;99.90;;;;;;5012255;28;20472;-72
2022/12/25 06:03:21;;;;;;;7.17;3.00;;;10.00;99.90;;;;;;5018380;28;22524;-72
2022/12/25 06:06:07;;;;;;;13.73;2.70;;;10.00;99.90;;;;;;5003920;28;20967;-72
2022/12/25 06:08:54;;;;;;;4.43;2.47;;;10.00;99.90;;;;;;5009242;28;20449;-72
2022/12/25 06:11:40;;;;;;;7.23;2.80;;;10.10;99.90;;;;;;5017016;28;21260;-72
2022/12/25 06:14:26;;;;;;;3.63;2.10;;;10.10;99.90;;;;;;5010951;28;20453;-73
2022/12/25 06:17:13;;;;;;;8.73;3.13;;;10.10;99.90;;;;;;5016625;28;20455;-72
2022/12/25 06:19:59;;;;;;;4.70;2.40;;;10.10;99.90;;;;;;5017163;28;21006;-73
2022/12/25 06:22:44;;;;;;;7.83;2.60;;;10.20;99.90;;;;;;5014950;28;20863;-75
2022/12/25 06:25:30;;;;;;;8.07;2.60;;;10.20;99.90;;;;;;5012167;28;20448;-72
2022/12/25 06:28:15;;;;;;;6.10;2.63;;;10.10;99.90;;;;;;5022681;28;20424;-72
2022/12/25 06:31:06;;;;;;;8.93;2.93;;;10.20;99.90;;;;;;5008252;28;20445;-74
2022/12/25 06:33:53;;;;;;;4.57;2.60;;;10.20;99.90;;;;;;5010172;28;20508;-71
2022/12/25 06:36:39;;;;;;;12.93;2.63;;;10.10;99.90;;;;;;5013886;28;20547;-72
2022/12/25 06:39:24;;;;;;;5.90;2.63;;;10.10;99.90;;;;;;5014688;28;20441;-72
2022/12/25 06:42:10;;;;;;;4.73;2.80;;;10.10;99.90;;;;;;5007501;28;20457;-71
2022/12/25 06:44:56;;;;;;;12.07;2.50;;;10.00;99.90;;;;;;5014198;28;20441;-72
2022/12/25 06:47:42;;;;;;;9.97;3.20;;;10.00;99.90;;;;;;5004615;28;20449;-72
2022/12/25 06:50:29;;;;;;;5.73;3.47;;;10.10;99.90;;;;;;5010091;28;20427;-74
2022/12/25 06:53:14;;;;;;;5.30;2.90;;;10.00;99.90;;;;;;5006539;28;20970;-72
2022/12/25 06:56:03;;;;;;;5.63;3.13;;;10.10;99.90;;;;;;5022191;28;20812;-72
2022/12/25 06:58:50;;;;;;;5.63;3.40;;;10.10;99.90;;;;;;5009214;28;20449;-72
2022/12/25 07:01:39;;;;;;;11.70;3.40;;;10.00;99.90;;;;;;5014641;28;21072;-72
2022/12/25 07:04:30;;;;;;;6.43;3.23;;;10.00;99.90;;;;;;5015515;28;20472;-72
2022/12/25 07:07:18;;;;;;;3.93;2.60;;;9.90;99.90;;;;;;5007206;28;20473;-73
2022/12/25 07:10:03;;;;;;;5.27;2.60;;;9.90;99.90;;;;;;5016792;28;20425;-72
2022/12/25 07:12:49;;;;;;;7.87;3.00;;;9.80;99.90;;;;;;5009769;28;20544;-73
2022/12/25 07:15:35;;;;;;;5.63;3.00;;;9.90;99.90;;;;;;5024720;28;20587;-73
2022/12/25 07:18:20;;;;;;;6.10;2.40;;;10.00;99.90;;;;;;5019924;28;21081;-72
2022/12/25 07:21:07;;;;;;;5.27;2.70;;;9.90;99.90;;;;;;5019691;28;20518;-73
2022/12/25 07:23:54;;;;;;;4.00;3.00;;;9.90;99.90;;;;;;5010109;28;20492;-72
2022/12/25 07:26:40;;;;;;;6.60;3.40;;;10.00;99.90;;;;;;5023092;28;20444;-72
2022/12/25 07:29:25;;;;;;;4.53;2.60;;;10.00;99.90;;;;;;5017986;28;21061;-72
2022/12/25 07:32:11;;;;;;;6.90;2.50;;;10.10;99.90;;;;;;5014621;28;20441;-73
2022/12/25 07:34:57;;;;;;;5.00;2.00;;;10.00;99.90;;;;;;5014370;28;20507;-73
2022/12/25 07:37:42;;;;;;;6.73;2.53;;;10.00;99.90;;;;;;5009916;28;20434;-73
2022/12/25 07:40:29;;;;;;;6.70;2.50;;;10.00;99.90;;;;;;5015401;28;20496;-72
2022/12/25 07:43:15;;;;;;;9.40;2.00;;;10.10;99.90;;;;;;5004224;28;20446;-72
2022/12/25 07:46:01;;;;;;;6.83;2.37;;;10.10;99.90;;;;;;5008572;28;20469;-73
2022/12/25 07:48:47;;;;;;;4.50;2.27;;;10.10;99.90;;;;;;5014895;28;20479;-73
2022/12/25 07:51:32;;;;;;;10.10;2.50;;;10.00;99.90;;;;;;5005650;28;20855;-73
2022/12/25 07:54:19;;;;;;;6.27;3.00;;;10.00;99.90;;;;;;5009066;28;20437;-72
2022/12/25 07:57:08;;;;;;;5.43;2.97;;;10.10;99.90;;;;;;5007356;28;20476;-71
2022/12/25 07:59:55;;;;;;;6.33;2.67;;;10.10;99.90;;;;;;5003243;28;20465;-75
2022/12/25 08:02:41;;;;;;;5.10;2.40;;;10.10;99.90;;;;;;5004943;28;20441;-75
2022/12/25 08:05:26;;;;;;;6.00;2.53;;;10.20;99.90;;;;;;5007155;28;20465;-75
2022/12/25 08:08:12;;;;;;;6.77;2.30;;;10.20;99.90;;;;;;5005951;28;20449;-75
2022/12/25 08:10:58;;;;;;;5.50;2.77;;;10.20;99.90;;;;;;5019264;28;20432;-72
2022/12/25 08:13:45;;;;;;;5.83;2.30;;;10.30;99.90;;;;;;5011859;28;20482;-73
2022/12/25 08:16:31;;;;;;;9.33;3.10;;;10.30;99.90;;;;;;5015151;28;20456;-75
2022/12/25 08:19:17;;;;;;;12.23;2.77;;;10.30;99.90;;;;;;5015198;28;20483;-75
2022/12/25 08:22:03;;;;;;;3.70;2.30;;;10.20;99.90;;;;;;5003759;28;20555;-74
2022/12/25 08:24:48;;;;;;;4.80;2.60;;;10.20;99.90;;;;;;5020979;28;21004;-74
2022/12/25 08:27:35;;;;;;;4.97;3.13;;;10.30;99.90;;;;;;5020045;28;20523;-75
2022/12/25 08:30:23;;;;;;;6.27;2.93;;;10.20;99.90;;;;;;5015095;28;20550;-74
2022/12/25 08:33:08;;;;;;;5.73;3.30;;;10.30;99.90;;;;;;5008546;28;20962;-74
2022/12/25 08:35:55;;;;;;;2.70;1.80;;;10.30;99.90;;;;;;5015947;28;20834;-75
2022/12/25 08:38:41;;;;;;;3.23;2.20;;;10.30;99.90;;;;;;5015010;28;20421;-75
2022/12/25 08:41:27;;;;;;;4.10;2.37;;;10.30;99.90;;;;;;5000575;28;20520;-75
2022/12/25 08:44:14;;;;;;;4.90;2.43;;;10.30;99.90;;;;;;5010110;28;20417;-75
2022/12/25 08:47:01;;;;;;;5.03;2.50;;;10.30;99.90;;;;;;5011313;28;20462;-73
2022/12/25 08:49:47;;;;;;;6.47;2.07;;;10.40;99.90;;;;;;5009494;28;20445;-74
2022/12/25 08:52:32;;;;;;;5.90;2.43;;;10.40;99.90;;;;;;5003964;28;20565;-74
2022/12/25 08:55:18;;;;;;;2.80;2.23;;;10.40;99.90;;;;;;5003790;28;20816;-76
2022/12/25 08:58:04;;;;;;;4.30;2.37;;;10.50;99.90;;;;;;5008871;28;20453;-75
2022/12/25 09:00:49;;;;;;;11.03;2.53;;;10.50;99.90;;;;;;5003787;28;22234;-74
2022/12/25 09:03:36;;;;;;;2.80;1.80;;;10.40;99.90;;;;;;5005301;28;20461;-75
2022/12/25 09:06:22;;;;;;;4.13;2.20;;;10.40;99.90;;;;;;5012033;28;20464;-75
2022/12/25 09:09:07;;;;;;;6.13;2.40;;;10.30;99.90;;;;;;5009115;28;20468;-73
2022/12/25 09:11:53;;;;;;;3.73;2.30;;;10.40;99.90;;;;;;5005089;28;21065;-75
2022/12/25 09:14:39;;;;;;;9.47;3.00;;;10.50;99.90;;;;;;5010136;28;20421;-75
2022/12/25 09:17:25;;;;;;;8.10;3.37;;;10.40;99.90;;;;;;5007996;28;20485;-75
2022/12/25 09:20:12;;;;;;;5.63;2.57;;;10.60;99.90;;;;;;5003668;28;20508;-74
2022/12/25 09:22:57;;;;;;;7.10;3.10;;;10.60;99.90;;;;;;5001618;28;20441;-75
2022/12/25 09:25:43;;;;;;;7.57;3.20;;;10.60;99.90;;;;;;5008823;28;20464;-75
2022/12/25 09:28:30;;;;;;;9.00;3.33;;;10.70;99.90;;;;;;4999571;28;20428;-75
2022/12/25 09:31:15;;;;;;;6.80;3.80;;;10.80;99.90;;;;;;5001336;28;21347;-75
2022/12/25 09:34:01;;;;;;;9.70;3.60;;;10.80;99.90;;;;;;5013000;28;20399;-74
2022/12/25 09:36:48;;;;;;;7.27;3.10;;;10.80;99.90;;;;;;5010503;28;21081;-75
2022/12/25 09:39:34;;;;;;;19.43;3.50;;;10.90;99.90;;;;;;5006574;28;20445;-76
2022/12/25 09:42:22;;;;;;;8.53;3.10;;;10.90;99.90;;;;;;5007132;28;20468;-75
2022/12/25 09:45:12;;;;;;;6.90;2.70;;;10.90;99.90;;;;;;5005877;28;20503;-75
2022/12/25 09:47:57;;;;;;;5.70;2.63;;;10.90;99.90;;;;;;5010921;28;20461;-76
2022/12/25 09:50:48;;;;;;;12.23;2.97;;;11.00;99.90;;;;;;5013865;28;20447;-73
2022/12/25 09:53:38;;;;;;;5.40;2.83;;;11.00;99.90;;;;;;5012531;28;20460;-72
2022/12/25 09:56:25;;;;;;;8.50;3.43;;;11.10;99.90;;;;;;5009957;28;21056;-75
2022/12/25 09:59:20;;;;;;;5.97;2.80;;;11.20;99.90;;;;;;5010540;28;20518;-75
2022/12/25 10:02:34;;;;;;;4.30;2.73;;;11.30;99.90;;;;;;5008849;28;20480;-76
2022/12/25 10:05:33;;;;;;;5.13;3.40;;;11.30;99.90;;;;;;5011765;28;20439;-76
2022/12/25 10:08:26;;;;;;;7.43;4.67;;;11.50;99.90;;;;;;5008422;28;20453;-73
2022/12/25 10:11:27;;;;;;;9.70;4.63;;;11.60;99.90;;;;;;5005981;28;20976;-75
2022/12/25 10:14:31;;;;;;;7.00;4.60;;;11.60;99.90;;;;;;5002065;28;20485;-72
2022/12/25 10:17:36;;;;;;;5.27;3.60;;;11.70;99.90;;;;;;5004644;28;20572;-75
2022/12/25 10:20:43;;;;;;;6.10;4.97;;;11.80;99.90;;;;;;5008943;28;20444;-73
2022/12/25 10:23:35;;;;;;;7.10;4.20;;;11.90;99.90;;;;;;5003948;28;20420;-73
2022/12/25 10:26:33;;;;;;;9.80;5.30;;;11.90;99.90;;;;;;5006099;28;20579;-74
2022/12/25 10:29:25;;;;;;;16.97;4.70;;;12.10;99.90;;;;;;5003987;28;21074;-74
2022/12/25 10:32:21;;;;;;;8.43;5.70;;;12.30;99.90;;;;;;5005477;28;20582;-73
2022/12/25 10:35:16;;;;;;;7.37;4.40;;;12.30;99.90;;;;;;5006720;28;20818;-74
2022/12/25 10:38:10;;;;;;;8.70;4.10;;;12.30;99.90;;;;;;5012824;28;20535;-74
2022/12/25 10:41:11;;;;;;;8.97;4.87;;;12.40;99.90;;;;;;5016963;28;20801;-72
2022/12/25 10:43:58;;;;;;;7.53;4.30;;;12.40;99.90;;;;;;5012700;28;20417;-73
2022/12/25 10:46:52;;;;;;;7.40;5.33;;;12.30;99.90;;;;;;5009985;28;20549;-74
2022/12/25 10:49:54;;;;;;;7.67;4.50;;;12.30;99.90;;;;;;5008661;28;20890;-75
2022/12/25 10:52:58;;;;;;;5.33;4.03;;;12.30;99.90;;;;;;5004478;28;20772;-75
2022/12/25 10:56:02;;;;;;;5.10;3.70;;;12.40;99.90;;;;;;5004811;28;20472;-74
2022/12/25 10:58:48;;;;;;;6.53;3.63;;;12.40;99.90;;;;;;5006593;28;20460;-73
2022/12/25 11:01:35;;;;;;;4.90;3.70;;;12.40;99.90;;;;;;5010599;28;20824;-75
2022/12/25 11:04:25;;;;;;;4.87;3.53;;;12.40;99.90;;;;;;5007171;28;20449;-72
2022/12/25 11:07:50;;;;;;;9.10;3.63;;;12.40;99.90;;;;;;5006434;28;20842;-75
2022/12/25 11:10:37;;;;;;;4.90;2.53;;;12.40;99.90;;;;;;5002892;28;20504;-71
2022/12/25 11:13:25;;;;;;;8.40;2.93;;;12.50;99.90;;;;;;5007718;28;20509;-72
2022/12/25 11:16:24;;;;;;;6.90;3.03;;;12.50;99.90;;;;;;5010635;28;20624;-73
2022/12/25 11:19:33;;;;;;;8.80;3.67;;;12.50;99.90;;;;;;5015554;28;20419;-75
2022/12/25 11:22:19;;;;;;;9.03;3.13;;;12.50;99.90;;;;;;5009459;28;20477;-75
2022/12/25 11:25:20;;;;;;;3.73;2.77;;;12.60;99.90;;;;;;5010078;28;20967;-75
2022/12/25 11:28:07;;;;;;;5.63;3.53;;;12.70;99.90;;;;;;5001457;28;20825;-72
2022/12/25 11:30:57;;;;;;;7.90;3.87;;;12.80;99.90;;;;;;5001111;28;20544;-75
2022/12/25 11:33:50;;;;;;;4.80;3.00;;;12.80;99.90;;;;;;5010095;28;20960;-72
2022/12/25 11:36:44;;;;;;;6.23;3.10;;;12.90;99.90;;;;;;4999878;28;20473;-76
2022/12/25 11:39:31;;;;;;;3.33;2.57;;;12.90;99.90;;;;;;5008006;28;20453;-73
2022/12/25 11:42:22;;;;;;;5.90;3.73;;;12.90;99.90;;;;;;5004965;28;20555;-74
2022/12/25 11:45:15;;;;;;;8.83;3.80;;;12.90;99.90;;;;;;5004378;28;20445;-73
2022/12/25 11:48:05;;;;;;;4.70;3.30;;;12.90;99.90;;;;;;5005195;28;20482;-75
2022/12/25 11:50:55;;;;;;;5.87;3.00;;;12.90;99.90;;;;;;5007569;28;20521;-73
2022/12/25 11:53:47;;;;;;;5.67;2.97;;;12.90;99.90;;;;;;5006742;28;20447;-74
2022/12/25 11:56:33;;;;;;;4.67;2.60;;;12.90;99.90;;;;;;5003295;28;21062;-74
2022/12/25 11:59:25;;;;;;;3.70;2.10;;;12.90;99.90;;;;;;5007763;28;20453;-75
2022/12/25 12:02:22;;;;;;;3.83;2.20;;;12.80;99.90;;;;;;5005028;28;20443;-75
2022/12/25 12:05:23;;;;;;;6.00;2.70;;;12.90;99.90;;;;;;5002144;28;20465;-74
2022/12/25 12:08:10;;;;;;;3.07;2.10;;;12.90;99.90;;;;;;5002691;28;20447;-74
2022/12/25 12:11:18;;;;;;;3.10;2.20;;;12.90;99.90;;;;;;5009860;28;20433;-74
2022/12/25 12:14:20;;;;;;;3.30;1.87;;;13.00;99.90;;;;;;5005175;28;20441;-71
2022/12/25 12:17:10;;;;;;;4.80;2.50;;;13.10;99.90;;;;;;5002783;28;20472;-74
2022/12/25 12:19:57;;;;;;;6.70;2.33;;;13.30;99.90;;;;;;5004901;28;20416;-74
2022/12/25 12:22:50;;;;;;;6.50;2.70;;;13.40;99.90;;;;;;5005968;28;20480;-74
2022/12/25 12:25:39;;;;;;;4.77;2.43;;;13.40;99.90;;;;;;5000325;28;20827;-74
2022/12/25 12:28:29;;;;;;;5.80;2.77;;;13.50;99.90;;;;;;5003666;28;21081;-74
2022/12/25 12:31:14;;;;;;;5.13;3.60;;;13.50;99.90;;;;;;5004050;28;20469;-73
2022/12/25 12:34:00;;;;;;;3.70;2.47;;;13.60;99.90;;;;;;5003185;28;20449;-74
2022/12/25 12:36:46;;;;;;;3.53;2.33;;;13.60;99.90;;;;;;5001103;28;20472;-74
2022/12/25 12:39:35;;;;;;;4.07;2.83;;;13.70;99.90;;;;;;5005223;28;20966;-74
2022/12/25 12:42:25;;;;;;;5.10;2.87;;;13.70;99.90;;;;;;5008194;28;21213;-74
2022/12/25 12:45:20;;;;;;;5.33;2.80;;;13.70;99.90;;;;;;5009223;28;20456;-73
2022/12/25 12:48:15;;;;;;;3.10;2.50;;;13.70;99.90;;;;;;4999280;28;20431;-74
2022/12/25 12:51:05;;;;;;;7.57;2.80;;;13.80;99.90;;;;;;5010657;28;20551;-74
2022/12/25 12:53:51;;;;;;;3.97;2.47;;;13.90;99.90;;;;;;4999023;28;20449;-73
2022/12/25 12:56:37;;;;;;;6.10;3.30;;;13.80;99.90;;;;;;5001723;28;20459;-73
2022/12/25 12:59:23;;;;;;;5.47;2.80;;;14.50;99.90;;;;;;5001800;28;20533;-73
2022/12/25 13:02:46;;;;;;;3.53;2.17;;;16.30;99.90;;;;;;5001770;28;20804;-73
2022/12/25 13:05:38;;;;;;;4.17;2.00;;;18.80;99.90;;;;;;4999119;28;20458;-73
2022/12/25 13:08:38;;;;;;;3.77;3.07;;;20.70;99.80;;;;;;5006593;28;20485;-72
2022/12/25 13:11:26;;;;;;;3.70;2.60;;;20.60;84.40;;;;;;5004276;28;20825;-73
2022/12/25 13:14:18;;;;;;;4.57;2.70;;;19.80;90.10;;;;;;5000511;28;20457;-71
2022/12/25 13:17:07;;;;;;;4.13;2.90;;;18.70;96.00;;;;;;5002185;28;20470;-73
2022/12/25 13:19:56;;;;;;;4.20;2.93;;;17.80;99.90;;;;;;5014425;28;20586;-74
2022/12/25 13:22:42;;;;;;;4.30;2.87;;;17.00;99.90;;;;;;5008575;28;20443;-72
2022/12/25 13:25:28;;;;;;;3.80;2.90;;;16.40;99.90;;;;;;5005860;28;20468;-73
2022/12/25 13:28:14;;;;;;;5.70;3.50;;;15.40;99.90;;;;;;5003876;28;20441;-74
2022/12/25 13:31:06;;;;;;;9.10;3.87;;;14.90;99.90;;;;;;5008857;28;21138;-73
2022/12/25 13:33:58;;;;;;;6.70;3.70;;;14.70;99.90;;;;;;5009416;28;20411;-73
2022/12/25 13:36:44;;;;;;;7.70;3.63;;;14.20;99.90;;;;;;5009831;28;20961;-72
2022/12/25 13:39:30;;;;;;;7.57;3.27;;;14.00;99.90;;;;;;5010619;28;20957;-72
2022/12/25 13:42:17;;;;;;;4.60;3.57;;;13.80;99.90;;;;;;5006995;28;20444;-73
2022/12/25 13:45:06;;;;;;;5.23;2.93;;;13.70;99.90;;;;;;5000062;28;20587;-72
2022/12/25 13:47:52;;;;;;;5.13;2.53;;;13.60;99.90;;;;;;5004023;28;21037;-72
2022/12/25 13:50:37;;;;;;;8.50;2.90;;;13.50;99.90;;;;;;4994422;28;20453;-74
2022/12/25 13:53:25;;;;;;;5.63;2.10;;;13.40;99.90;;;;;;5008875;28;20412;-72
2022/12/25 13:56:14;;;;;;;6.80;2.33;;;13.20;99.90;;;;;;5003914;28;20604;-73
2022/12/25 13:59:00;;;;;;;6.40;2.57;;;13.20;99.90;;;;;;5002662;28;20464;-71
2022/12/25 14:01:46;;;;;;;3.57;2.43;;;13.10;99.90;;;;;;5008128;28;20491;-71
2022/12/25 14:04:31;;;;;;;3.20;2.37;;;13.00;99.90;;;;;;4995329;28;21062;-72
2022/12/25 14:07:22;;;;;;;6.20;2.07;;;12.90;99.90;;;;;;5001413;28;20471;-70
2022/12/25 14:10:12;;;;;;;3.90;2.50;;;12.90;99.90;;;;;;5005647;28;20441;-71
2022/12/25 14:13:00;;;;;;;4.87;2.27;;;12.80;99.90;;;;;;5001489;28;20453;-71
2022/12/25 14:15:47;;;;;;;3.90;2.50;;;12.80;99.90;;;;;;4998575;28;20468;-70
2022/12/25 14:18:34;;;;;;;5.70;2.80;;;12.70;99.90;;;;;;5005480;28;20445;-70
2022/12/25 14:21:28;;;;;;;4.17;3.10;;;12.70;99.90;;;;;;5007715;28;20449;-70
2022/12/25 14:24:16;;;;;;;7.07;2.90;;;12.60;99.90;;;;;;5005207;28;20486;-72
2022/12/25 14:27:05;;;;;;;4.93;3.20;;;12.50;99.90;;;;;;5009631;28;21279;-71
2022/12/25 14:29:54;;;;;;;7.33;2.73;;;12.50;99.90;;;;;;5009523;28;20450;-72
2022/12/25 14:32:44;;;;;;;15.63;3.30;;;12.50;99.90;;;;;;5004266;28;20964;-73
2022/12/25 14:35:31;;;;;;;4.17;2.90;;;12.40;99.90;;;;;;5005625;28;20464;-71
2022/12/25 14:38:23;;;;;;;7.00;2.43;;;12.40;99.90;;;;;;5006448;28;20416;-73
2022/12/25 14:41:31;;;;;;;6.87;2.70;;;12.40;99.90;;;;;;5007021;28;20432;-71
2022/12/25 14:44:32;;;;;;;3.40;2.60;;;12.40;99.90;;;;;;4993979;28;20549;-73
2022/12/25 14:47:20;;;;;;;4.50;3.00;;;12.30;99.90;;;;;;5006356;28;20916;-73
2022/12/25 14:50:14;;;;;;;5.47;3.00;;;12.40;99.90;;;;;;5005451;28;20444;-73
2022/12/25 14:53:01;;;;;;;4.27;2.43;;;12.40;99.90;;;;;;5011440;28;20408;-73
2022/12/25 14:55:48;;;;;;;6.03;2.67;;;12.40;99.90;;;;;;5004317;28;20578;-74
2022/12/25 14:58:40;;;;;;;5.50;2.70;;;12.50;99.90;;;;;;5007666;28;20445;-71
2022/12/25 15:01:31;;;;;;;6.70;2.60;;;12.50;99.90;;;;;;5007058;28;20511;-74
2022/12/25 15:04:19;;;;;;;4.47;2.80;;;12.60;99.90;;;;;;5001113;28;20526;-73
2022/12/25 15:07:08;;;;;;;4.50;2.37;;;12.60;99.90;;;;;;5004429;28;20448;-74
2022/12/25 15:09:54;;;;;;;5.87;3.23;;;12.50;99.90;;;;;;5002308;28;20420;-73
2022/12/25 15:12:39;;;;;;;4.23;2.63;;;12.40;99.90;;;;;;5003304;28;20445;-72
2022/12/25 15:15:25;;;;;;;5.57;2.87;;;12.40;99.90;;;;;;5003406;28;20628;-71
2022/12/25 15:18:13;;;;;;;4.77;2.43;;;12.40;99.90;;;;;;5003384;28;20458;-70
2022/12/25 15:20:58;;;;;;;3.10;2.33;;;12.30;99.90;;;;;;5004315;28;20464;-70
2022/12/25 15:23:44;;;;;;;3.23;2.50;;;12.20;99.90;;;;;;5004302;28;20553;-72
2022/12/25 15:26:32;;;;;;;2.90;2.27;;;12.10;99.90;;;;;;5005732;28;20510;-73
2022/12/25 15:29:17;;;;;;;3.20;2.50;;;12.10;99.90;;;;;;5002424;28;20453;-74
2022/12/25 15:32:03;;;;;;;5.73;2.60;;;12.00;99.90;;;;;;5003007;28;20431;-73
2022/12/25 15:34:52;;;;;;;3.40;2.50;;;11.90;99.90;;;;;;4999620;28;20449;-73
2022/12/25 15:37:38;;;;;;;5.10;2.93;;;11.90;99.90;;;;;;5003024;28;20500;-75
2022/12/25 15:40:23;;;;;;;6.13;3.00;;;11.90;99.90;;;;;;5005485;28;20482;-75
2022/12/25 15:43:12;;;;;;;5.43;2.60;;;11.90;99.90;;;;;;5001423;28;21131;-75
2022/12/25 15:45:57;;;;;;;6.27;2.60;;;11.80;99.90;;;;;;4999513;28;20466;-76
2022/12/25 15:48:43;;;;;;;7.33;2.63;;;11.80;99.90;;;;;;5009749;28;20551;-74
2022/12/25 15:51:30;;;;;;;10.47;2.70;;;11.70;99.90;;;;;;5007376;28;21272;-74
2022/12/25 15:54:17;;;;;;;2.80;2.30;;;11.70;99.90;;;;;;5002513;28;20442;-75
2022/12/25 15:57:06;;;;;;;5.47;3.10;;;11.60;99.90;;;;;;5007420;28;20485;-75
2022/12/25 15:59:51;;;;;;;3.63;2.30;;;11.60;99.90;;;;;;5018529;28;20453;-74
2022/12/25 16:02:37;;;;;;;7.83;2.57;;;11.60;99.90;;;;;;5004408;28;20453;-75
2022/12/25 16:05:23;;;;;;;9.13;2.70;;;11.50;99.90;;;;;;5005120;28;20847;-75
2022/12/25 16:08:10;;;;;;;5.40;2.50;;;11.40;99.90;;;;;;5003846;28;20457;-75
2022/12/25 16:10:56;;;;;;;8.63;2.40;;;11.40;99.90;;;;;;5005982;28;20441;-74
2022/12/25 16:13:42;;;;;;;3.87;2.57;;;11.30;99.90;;;;;;5003468;28;20935;-74
2022/12/25 16:16:27;;;;;;;5.27;2.60;;;11.30;99.90;;;;;;5006289;28;20436;-73
2022/12/25 16:19:13;;;;;;;6.03;2.70;;;11.40;99.90;;;;;;5010823;28;20474;-73
2022/12/25 16:21:59;;;;;;;4.67;2.17;;;11.30;99.90;;;;;;4998457;28;20556;-75
2022/12/25 16:24:46;;;;;;;4.27;2.20;;;11.30;99.90;;;;;;4998606;28;20913;-75
2022/12/25 16:27:31;;;;;;;3.50;2.23;;;11.30;99.90;;;;;;5006964;28;20500;-75